sensor_id;sensor_type;location;lat;lon;timestamp;pressure;altitude;pressure_sealevel;temperature;humidity
74346;BME280;62776;50.518;6.732;2022-12-05T00:01:38;96343.00;;;1.73;100.00
74346;BME280;62776;50.518;6.732;2022-12-05T00:04:24;96338.81;;;1.75;100.00
74346;BME280;62776;50.518;6.732;2022-12-05T00:07:10;96333.69;;;1.75;100.00
74346;BME280;62776;50.518;6.732;2022-12-05T00:09:56;96335.44;;;1.78;100.00
74346;BME280;62776;50.518;6.732;2022-12-05T00:12:42;96334.56;;;1.77;100.00
74346;BME280;62776;50.518;6.732;2022-12-05T00:15:28;96341.44;;;1.78;100.00
74346;BME280;62776;50.518;6.732;2022-12-05T00:18:14;96341.50;;;1.83;100.00
74346;BME280;62776;50.518;6.732;2022-12-05T00:21:00;96338.94;;;1.83;100.00
74346;BME280;62776;50.518;6.732;2022-12-05T00:23:46;96342.31;;;1.81;100.00
74346;BME280;62776;50.518;6.732;2022-12-05T00:26:32;96338.88;;;1.80;100.00
74346;BME280;62776;50.518;6.732;2022-12-05T00:29:19;96343.19;;;1.81;100.00
74346;BME280;62776;50.518;6.732;2022-12-05T00:32:05;96343.19;;;1.81;100.00
74346;BME280;62776;50.518;6.732;2022-12-05T00:34:51;96351.78;;;1.85;100.00
74346;BME280;62776;50.518;6.732;2022-12-05T00:37:37;96348.44;;;1.89;100.00
74346;BME280;62776;50.518;6.732;2022-12-05T00:40:23;96351.81;;;1.86;100.00
74346;BME280;62776;50.518;6.732;2022-12-05T00:43:09;96347.50;;;1.85;100.00
74346;BME280;62776;50.518;6.732;2022-12-05T00:45:55;96348.34;;;1.84;100.00
74346;BME280;62776;50.518;6.732;2022-12-05T00:48:41;96342.38;;;1.84;100.00
74346;BME280;62776;50.518;6.732;2022-12-05T00:51:34;96353.31;;;1.76;100.00
74346;BME280;62776;50.518;6.732;2022-12-05T00:54:20;96350.00;;;1.82;100.00
74346;BME280;62776;50.518;6.732;2022-12-05T00:57:06;96347.44;;;1.81;100.00
74346;BME280;62776;50.518;6.732;2022-12-05T00:59:52;96355.13;;;1.81;100.00
74346;BME280;62776;50.518;6.732;2022-12-05T01:02:38;96351.72;;;1.82;100.00
74346;BME280;62776;50.518;6.732;2022-12-05T01:05:24;96361.94;;;1.82;100.00
74346;BME280;62776;50.518;6.732;2022-12-05T01:08:10;96354.28;;;1.82;100.00
74346;BME280;62776;50.518;6.732;2022-12-05T01:10:58;96358.50;;;1.79;100.00
74346;BME280;62776;50.518;6.732;2022-12-05T01:13:44;96358.56;;;1.83;100.00
74346;BME280;62776;50.518;6.732;2022-12-05T01:16:33;96360.19;;;1.77;100.00
74346;BME280;62776;50.518;6.732;2022-12-05T01:19:30;96361.72;;;1.69;100.00
74346;BME280;62776;50.518;6.732;2022-12-05T01:22:17;96359.44;;;1.83;100.00
74346;BME280;62776;50.518;6.732;2022-12-05T01:25:03;96359.44;;;1.83;100.00
74346;BME280;62776;50.518;6.732;2022-12-05T01:27:50;96365.44;;;1.84;100.00
74346;BME280;62776;50.518;6.732;2022-12-05T01:30:40;96371.16;;;1.72;100.00
74346;BME280;62776;50.518;6.732;2022-12-05T01:33:27;96367.06;;;1.80;100.00
74346;BME280;62776;50.518;6.732;2022-12-05T01:36:13;96365.44;;;1.84;100.00
74346;BME280;62776;50.518;6.732;2022-12-05T01:39:00;96370.56;;;1.84;100.00
74346;BME280;62776;50.518;6.732;2022-12-05T01:41:48;96363.63;;;1.78;100.00
74346;BME280;62776;50.518;6.732;2022-12-05T01:47:21;96372.09;;;1.75;100.00
74346;BME280;62776;50.518;6.732;2022-12-05T01:50:08;96368.75;;;1.79;100.00
74346;BME280;62776;50.518;6.732;2022-12-05T01:52:55;96362.88;;;1.84;100.00
74346;BME280;62776;50.518;6.732;2022-12-05T01:55:41;96367.16;;;1.85;100.00
74346;BME280;62776;50.518;6.732;2022-12-05T01:58:31;96366.25;;;1.81;100.00
74346;BME280;62776;50.518;6.732;2022-12-05T02:01:19;96367.22;;;1.88;100.00
74346;BME280;62776;50.518;6.732;2022-12-05T02:04:06;96362.16;;;1.91;100.00
74346;BME280;62776;50.518;6.732;2022-12-05T02:06:53;96373.25;;;1.91;100.00
74346;BME280;62776;50.518;6.732;2022-12-05T02:09:39;96377.59;;;1.95;100.00
74346;BME280;62776;50.518;6.732;2022-12-05T02:12:26;96382.78;;;1.97;100.00
74346;BME280;62776;50.518;6.732;2022-12-05T02:21:47;96389.84;;;1.68;100.00
74346;BME280;62776;50.518;6.732;2022-12-05T02:24:57;96390.94;;;1.79;100.00
74346;BME280;62776;50.518;6.732;2022-12-05T02:31:27;96392.84;;;1.88;100.00
74346;BME280;62776;50.518;6.732;2022-12-05T02:34:53;96379.81;;;1.77;100.00
74346;BME280;62776;50.518;6.732;2022-12-05T02:46:28;96375.09;;;1.97;100.00
74346;BME280;62776;50.518;6.732;2022-12-05T02:49:19;96378.47;;;1.96;100.00
74346;BME280;62776;50.518;6.732;2022-12-05T02:52:09;96369.13;;;1.98;100.00
74346;BME280;62776;50.518;6.732;2022-12-05T02:54:57;96368.34;;;2.00;100.00
74346;BME280;62776;50.518;6.732;2022-12-05T02:57:47;96370.75;;;1.94;100.00
74346;BME280;62776;50.518;6.732;2022-12-05T03:00:38;96372.34;;;1.88;100.00
74346;BME280;62776;50.518;6.732;2022-12-05T03:03:25;96365.59;;;1.93;100.00
74346;BME280;62776;50.518;6.732;2022-12-05T03:09:10;96361.28;;;1.90;100.00
74346;BME280;62776;50.518;6.732;2022-12-05T03:12:22;96367.78;;;1.73;100.00
74346;BME280;62776;50.518;6.732;2022-12-05T03:15:25;96366.31;;;1.86;100.00
74346;BME280;62776;50.518;6.732;2022-12-05T03:24:10;96379.88;;;1.82;100.00
74346;BME280;62776;50.518;6.732;2022-12-05T03:30:09;96381.63;;;1.83;100.00
74346;BME280;62776;50.518;6.732;2022-12-05T03:33:15;96388.44;;;1.82;100.00
74346;BME280;62776;50.518;6.732;2022-12-05T03:36:13;96388.38;;;1.77;100.00
74346;BME280;62776;50.518;6.732;2022-12-05T03:39:22;96387.69;;;1.86;100.00
74346;BME280;62776;50.518;6.732;2022-12-05T03:42:17;96389.25;;;1.79;100.00
74346;BME280;62776;50.518;6.732;2022-12-05T03:45:16;96395.25;;;1.82;100.00
74346;BME280;62776;50.518;6.732;2022-12-05T03:48:27;96395.44;;;1.89;100.00
74346;BME280;62776;50.518;6.732;2022-12-05T03:51:16;96394.69;;;1.95;100.00
74346;BME280;62776;50.518;6.732;2022-12-05T03:54:27;96397.81;;;1.80;100.00
74346;BME280;62776;50.518;6.732;2022-12-05T03:57:36;96393.72;;;1.90;100.00
74346;BME280;62776;50.518;6.732;2022-12-05T04:00:33;96396.34;;;1.93;100.00
74346;BME280;62776;50.518;6.732;2022-12-05T04:03:27;96395.50;;;1.92;100.00
74346;BME280;62776;50.518;6.732;2022-12-05T04:06:33;96401.41;;;1.90;100.00
74346;BME280;62776;50.518;6.732;2022-12-05T04:09:28;96408.28;;;1.91;100.00
74346;BME280;62776;50.518;6.732;2022-12-05T04:12:26;96409.94;;;1.89;100.00
74346;BME280;62776;50.518;6.732;2022-12-05T04:15:23;96409.09;;;1.90;100.00
74346;BME280;62776;50.518;6.732;2022-12-05T04:18:11;96408.47;;;2.01;100.00
74346;BME280;62776;50.518;6.732;2022-12-05T04:20:58;96411.03;;;2.00;100.00
74346;BME280;62776;50.518;6.732;2022-12-05T04:24:26;96424.25;;;1.79;100.00
74346;BME280;62776;50.518;6.732;2022-12-05T04:27:46;96418.38;;;1.85;100.00
74346;BME280;62776;50.518;6.732;2022-12-05T04:34:06;96415.06;;;1.89;100.00
74346;BME280;62776;50.518;6.732;2022-12-05T04:37:11;96422.59;;;1.81;100.00
74346;BME280;62776;50.518;6.732;2022-12-05T04:40:08;96421.53;;;1.71;100.00
74346;BME280;62776;50.518;6.732;2022-12-05T04:42:56;96421.91;;;1.90;100.00
74346;BME280;62776;50.518;6.732;2022-12-05T04:45:44;96423.72;;;1.94;100.00
74346;BME280;62776;50.518;6.732;2022-12-05T04:48:33;96416.75;;;1.88;100.00
74346;BME280;62776;50.518;6.732;2022-12-05T04:51:24;96428.72;;;1.88;100.00
74346;BME280;62776;50.518;6.732;2022-12-05T04:54:23;96427.00;;;1.87;100.00
74346;BME280;62776;50.518;6.732;2022-12-05T04:57:19;96426.19;;;1.89;100.00
74346;BME280;62776;50.518;6.732;2022-12-05T05:00:07;96423.72;;;1.95;100.00
74346;BME280;62776;50.518;6.732;2022-12-05T05:03:04;96430.25;;;1.79;100.00
74346;BME280;62776;50.518;6.732;2022-12-05T05:05:54;96420.94;;;1.85;100.00
74346;BME280;62776;50.518;6.732;2022-12-05T05:08:52;96431.84;;;1.74;100.00
74346;BME280;62776;50.518;6.732;2022-12-05T05:11:39;96421.03;;;1.88;100.00
74346;BME280;62776;50.518;6.732;2022-12-05T05:14:25;96423.50;;;1.85;100.00
74346;BME280;62776;50.518;6.732;2022-12-05T05:17:11;96421.81;;;1.84;100.00
74346;BME280;62776;50.518;6.732;2022-12-05T05:19:57;96418.38;;;1.83;100.00
74346;BME280;62776;50.518;6.732;2022-12-05T05:23:03;96425.19;;;1.83;100.00
74346;BME280;62776;50.518;6.732;2022-12-05T05:25:53;96440.50;;;1.79;100.00
74346;BME280;62776;50.518;6.732;2022-12-05T05:28:40;96438.94;;;1.86;100.00
74346;BME280;62776;50.518;6.732;2022-12-05T05:31:26;96434.72;;;1.90;100.00
74346;BME280;62776;50.518;6.732;2022-12-05T05:34:12;96440.75;;;1.92;100.00
74346;BME280;62776;50.518;6.732;2022-12-05T05:37:00;96441.72;;;1.97;100.00
74346;BME280;62776;50.518;6.732;2022-12-05T05:39:47;96448.59;;;1.98;100.00
74346;BME280;62776;50.518;6.732;2022-12-05T05:42:33;96450.28;;;1.97;100.00
74346;BME280;62776;50.518;6.732;2022-12-05T05:45:19;96452.88;;;1.99;100.00
74346;BME280;62776;50.518;6.732;2022-12-05T05:48:05;96459.72;;;2.00;100.00
74346;BME280;62776;50.518;6.732;2022-12-05T05:50:52;96465.72;;;2.00;100.00
74346;BME280;62776;50.518;6.732;2022-12-05T05:53:38;96462.31;;;2.01;100.00
74346;BME280;62776;50.518;6.732;2022-12-05T05:56:24;96468.25;;;1.99;100.00
74346;BME280;62776;50.518;6.732;2022-12-05T05:59:10;96468.16;;;1.96;100.00
74346;BME280;62776;50.518;6.732;2022-12-05T06:01:56;96470.72;;;1.96;100.00
74346;BME280;62776;50.518;6.732;2022-12-05T06:04:42;96469.03;;;1.95;100.00
74346;BME280;62776;50.518;6.732;2022-12-05T06:07:29;96479.34;;;1.98;100.00
74346;BME280;62776;50.518;6.732;2022-12-05T06:10:15;96469.09;;;1.99;100.00
74346;BME280;62776;50.518;6.732;2022-12-05T06:13:02;96458.84;;;1.99;100.00
74346;BME280;62776;50.518;6.732;2022-12-05T06:15:48;96463.03;;;1.96;100.00
74346;BME280;62776;50.518;6.732;2022-12-05T06:18:34;96462.97;;;1.93;100.00
74346;BME280;62776;50.518;6.732;2022-12-05T06:21:21;96462.91;;;1.90;100.00
74346;BME280;62776;50.518;6.732;2022-12-05T06:24:08;96468.88;;;1.89;100.00
74346;BME280;62776;50.518;6.732;2022-12-05T06:26:54;96462.06;;;1.89;100.00
74346;BME280;62776;50.518;6.732;2022-12-05T06:29:40;96466.25;;;1.86;100.00
74346;BME280;62776;50.518;6.732;2022-12-05T06:32:27;96467.94;;;1.85;100.00
74346;BME280;62776;50.518;6.732;2022-12-05T06:35:14;96477.31;;;1.85;100.00
74346;BME280;62776;50.518;6.732;2022-12-05T06:38:00;96478.19;;;1.84;100.00
74346;BME280;62776;50.518;6.732;2022-12-05T06:40:46;96471.25;;;1.79;100.00
74346;BME280;62776;50.518;6.732;2022-12-05T06:43:33;96470.41;;;1.81;100.00
74346;BME280;62776;50.518;6.732;2022-12-05T06:46:19;96477.25;;;1.80;100.00
74346;BME280;62776;50.518;6.732;2022-12-05T06:49:05;96483.16;;;1.77;100.00
74346;BME280;62776;50.518;6.732;2022-12-05T06:51:52;96481.28;;;1.70;100.00
74346;BME280;62776;50.518;6.732;2022-12-05T06:54:38;96488.19;;;1.73;100.00
74346;BME280;62776;50.518;6.732;2022-12-05T06:57:26;96489.81;;;1.69;100.00
74346;BME280;62776;50.518;6.732;2022-12-05T07:00:13;96488.97;;;1.70;100.00
74346;BME280;62776;50.518;6.732;2022-12-05T07:03:18;96494.13;;;1.72;100.00
74346;BME280;62776;50.518;6.732;2022-12-05T07:06:06;96500.94;;;1.70;100.00
74346;BME280;62776;50.518;6.732;2022-12-05T07:08:52;96500.22;;;1.75;100.00
74346;BME280;62776;50.518;6.732;2022-12-05T07:11:39;96500.22;;;1.75;100.00
74346;BME280;62776;50.518;6.732;2022-12-05T07:14:25;96494.31;;;1.79;100.00
74346;BME280;62776;50.518;6.732;2022-12-05T07:17:11;96509.72;;;1.81;100.00
74346;BME280;62776;50.518;6.732;2022-12-05T07:19:57;96509.75;;;1.83;100.00
74346;BME280;62776;50.518;6.732;2022-12-05T07:22:44;96510.69;;;1.86;100.00
74346;BME280;62776;50.518;6.732;2022-12-05T07:25:30;96503.91;;;1.90;100.00
74346;BME280;62776;50.518;6.732;2022-12-05T07:28:17;96505.66;;;1.91;100.00
74346;BME280;62776;50.518;6.732;2022-12-05T07:31:05;96504.75;;;1.89;100.00
74346;BME280;62776;50.518;6.732;2022-12-05T07:33:51;96504.75;;;1.89;100.00
74346;BME280;62776;50.518;6.732;2022-12-05T07:36:37;96509.91;;;1.90;100.00
74346;BME280;62776;50.518;6.732;2022-12-05T07:39:24;96507.41;;;1.93;100.00
74346;BME280;62776;50.518;6.732;2022-12-05T07:42:10;96505.88;;;2.00;100.00
74346;BME280;62776;50.518;6.732;2022-12-05T07:44:56;96513.63;;;2.04;100.00
74346;BME280;62776;50.518;6.732;2022-12-05T07:47:42;96509.44;;;2.08;100.00
74346;BME280;62776;50.518;6.732;2022-12-05T07:50:28;96513.78;;;2.12;100.00
74346;BME280;62776;50.518;6.732;2022-12-05T07:53:14;96514.78;;;2.17;100.00
74346;BME280;62776;50.518;6.732;2022-12-05T07:56:02;96522.47;;;2.17;100.00
74346;BME280;62776;50.518;6.732;2022-12-05T07:58:50;96525.16;;;2.23;100.00
74346;BME280;62776;50.518;6.732;2022-12-05T08:01:36;96518.38;;;2.26;100.00
74346;BME280;62776;50.518;6.732;2022-12-05T08:04:22;96515.91;;;2.29;100.00
74346;BME280;62776;50.518;6.732;2022-12-05T08:07:09;96523.56;;;2.28;100.00
74346;BME280;62776;50.518;6.732;2022-12-05T08:09:56;96523.66;;;2.32;100.00
74346;BME280;62776;50.518;6.732;2022-12-05T08:12:42;96529.66;;;2.34;100.00
74346;BME280;62776;50.518;6.732;2022-12-05T08:15:28;96521.22;;;2.38;100.00
74346;BME280;62776;50.518;6.732;2022-12-05T08:18:15;96528.13;;;2.41;100.00
74346;BME280;62776;50.518;6.732;2022-12-05T08:21:05;96532.31;;;2.39;100.00
74346;BME280;62776;50.518;6.732;2022-12-05T08:23:52;96531.56;;;2.43;100.00
74346;BME280;62776;50.518;6.732;2022-12-05T08:26:40;96541.00;;;2.46;100.00
74346;BME280;62776;50.518;6.732;2022-12-05T08:29:27;96542.81;;;2.50;100.00
74346;BME280;62776;50.518;6.732;2022-12-05T08:32:13;96553.16;;;2.54;100.00
74346;BME280;62776;50.518;6.732;2022-12-05T08:34:59;96550.69;;;2.59;100.00
74346;BME280;62776;50.518;6.732;2022-12-05T08:37:45;96555.72;;;2.53;100.00
74346;BME280;62776;50.518;6.732;2022-12-05T08:40:31;96556.59;;;2.55;100.00
74346;BME280;62776;50.518;6.732;2022-12-05T08:43:17;96548.16;;;2.60;100.00
74346;BME280;62776;50.518;6.732;2022-12-05T08:46:04;96553.44;;;2.66;100.00
74346;BME280;62776;50.518;6.732;2022-12-05T08:48:51;96546.69;;;2.71;100.00
74346;BME280;62776;50.518;6.732;2022-12-05T08:51:37;96556.22;;;2.78;100.00
74346;BME280;62776;50.518;6.732;2022-12-05T08:54:23;96557.22;;;2.85;100.00
74346;BME280;62776;50.518;6.732;2022-12-05T08:57:09;96561.50;;;2.86;100.00
74346;BME280;62776;50.518;6.732;2022-12-05T08:59:55;96562.41;;;2.89;100.00
74346;BME280;62776;50.518;6.732;2022-12-05T09:02:41;96574.44;;;2.92;100.00
74346;BME280;62776;50.518;6.732;2022-12-05T09:05:28;96575.41;;;2.97;100.00
74346;BME280;62776;50.518;6.732;2022-12-05T09:08:14;96575.53;;;3.03;100.00
74346;BME280;62776;50.518;6.732;2022-12-05T09:11:08;96574.63;;;3.01;100.00
74346;BME280;62776;50.518;6.732;2022-12-05T09:13:56;96571.19;;;3.01;100.00
74346;BME280;62776;50.518;6.732;2022-12-05T09:16:44;96584.09;;;3.04;100.00
74346;BME280;62776;50.518;6.732;2022-12-05T09:19:31;96578.22;;;3.11;100.00
74346;BME280;62776;50.518;6.732;2022-12-05T09:22:17;96583.41;;;3.14;100.00
74346;BME280;62776;50.518;6.732;2022-12-05T09:25:03;96581.84;;;3.22;100.00
74346;BME280;62776;50.518;6.732;2022-12-05T09:27:49;96577.66;;;3.25;100.00
74346;BME280;62776;50.518;6.732;2022-12-05T09:30:36;96580.28;;;3.30;100.00
74346;BME280;62776;50.518;6.732;2022-12-05T09:33:24;96577.88;;;3.39;100.00
74346;BME280;62776;50.518;6.732;2022-12-05T09:36:13;96581.34;;;3.41;100.00
74346;BME280;62776;50.518;6.732;2022-12-05T09:39:04;96584.03;;;3.47;100.00
74346;BME280;62776;50.518;6.732;2022-12-05T09:42:18;96584.88;;;3.46;100.00
74346;BME280;62776;50.518;6.732;2022-12-05T09:48:13;96597.97;;;3.61;100.00
74346;BME280;62776;50.518;6.732;2022-12-05T09:51:02;96596.47;;;3.72;100.00
74346;BME280;62776;50.518;6.732;2022-12-05T09:53:48;96605.97;;;3.78;100.00
74346;BME280;62776;50.518;6.732;2022-12-05T09:56:35;96593.19;;;3.82;100.00
74346;BME280;62776;50.518;6.732;2022-12-05T09:59:21;96600.94;;;3.85;100.00
74346;BME280;62776;50.518;6.732;2022-12-05T10:02:35;96598.91;;;3.66;100.00
74346;BME280;62776;50.518;6.732;2022-12-05T10:08:37;96593.13;;;3.79;100.00
74346;BME280;62776;50.518;6.732;2022-12-05T10:11:40;96600.81;;;3.78;100.00
74346;BME280;62776;50.518;6.732;2022-12-05T10:14:59;96600.53;;;3.61;100.00
74346;BME280;62776;50.518;6.732;2022-12-05T10:17:59;96590.50;;;3.75;100.00
74346;BME280;62776;50.518;6.732;2022-12-05T10:21:02;96593.88;;;3.72;100.00
74346;BME280;62776;50.518;6.732;2022-12-05T10:24:01;96596.50;;;3.75;100.00
74346;BME280;62776;50.518;6.732;2022-12-05T10:26:54;96596.56;;;3.80;100.00
74346;BME280;62776;50.518;6.732;2022-12-05T10:29:57;96591.31;;;3.72;100.00
74346;BME280;62776;50.518;6.732;2022-12-05T10:32:54;96594.16;;;3.39;100.00
74346;BME280;62776;50.518;6.732;2022-12-05T10:35:41;96601.72;;;3.80;100.00
74346;BME280;62776;50.518;6.732;2022-12-05T10:38:31;96600.06;;;3.82;100.00
74346;BME280;62776;50.518;6.732;2022-12-05T10:41:20;96598.47;;;3.90;100.00
74346;BME280;62776;50.518;6.732;2022-12-05T10:44:06;96601.00;;;3.87;100.00
74346;BME280;62776;50.518;6.732;2022-12-05T10:46:52;96586.44;;;3.87;100.00
74346;BME280;62776;50.518;6.732;2022-12-05T10:49:39;96599.25;;;3.84;100.00
74346;BME280;62776;50.518;6.732;2022-12-05T10:52:25;96600.06;;;3.85;100.00
74346;BME280;62776;50.518;6.732;2022-12-05T10:55:14;96608.59;;;3.82;100.00
74346;BME280;62776;50.518;6.732;2022-12-05T11:01:11;96604.09;;;3.68;100.00
74346;BME280;62776;50.518;6.732;2022-12-05T11:04:02;96600.84;;;3.79;100.00
74346;BME280;62776;50.518;6.732;2022-12-05T11:07:00;96596.28;;;3.63;100.00
74346;BME280;62776;50.518;6.732;2022-12-05T11:09:47;96599.78;;;3.68;100.00
74346;BME280;62776;50.518;6.732;2022-12-05T11:12:38;96602.25;;;3.59;100.00
74346;BME280;62776;50.518;6.732;2022-12-05T11:15:28;96602.31;;;3.64;100.00
74346;BME280;62776;50.518;6.732;2022-12-05T11:18:34;96598.38;;;3.34;100.00
74346;BME280;62776;50.518;6.732;2022-12-05T11:21:20;96598.75;;;3.55;100.00
74346;BME280;62776;50.518;6.732;2022-12-05T11:24:27;96607.06;;;3.42;100.00
74346;BME280;62776;50.518;6.732;2022-12-05T11:30:08;96615.19;;;3.65;100.00
74346;BME280;62776;50.518;6.732;2022-12-05T11:33:21;96614.84;;;3.47;100.00
74346;BME280;62776;50.518;6.732;2022-12-05T11:36:22;96611.47;;;3.49;100.00
74346;BME280;62776;50.518;6.732;2022-12-05T11:39:11;96614.22;;;3.58;100.00
74346;BME280;62776;50.518;6.732;2022-12-05T11:45:15;96602.25;;;3.13;100.00
74346;BME280;62776;50.518;6.732;2022-12-05T12:00:23;96586.94;;;3.65;100.00
74346;BME280;62776;50.518;6.732;2022-12-05T12:06:26;96583.22;;;3.49;100.00
74346;BME280;62776;50.518;6.732;2022-12-05T12:12:27;96589.34;;;3.56;100.00
74346;BME280;62776;50.518;6.732;2022-12-05T12:31:14;96580.16;;;3.72;100.00
74346;BME280;62776;50.518;6.732;2022-12-05T12:34:37;96580.16;;;3.70;100.00
74346;BME280;62776;50.518;6.732;2022-12-05T12:40:47;96577.97;;;3.94;100.00
74346;BME280;62776;50.518;6.732;2022-12-05T12:44:03;96578.03;;;3.99;100.00
74346;BME280;62776;50.518;6.732;2022-12-05T12:47:00;96579.09;;;4.13;100.00
74346;BME280;62776;50.518;6.732;2022-12-05T12:50:03;96580.69;;;4.05;100.00
74346;BME280;62776;50.518;6.732;2022-12-05T13:00:32;96572.72;;;3.88;100.00
74346;BME280;62776;50.518;6.732;2022-12-05T13:03:02;96577.88;;;3.88;100.00
74346;BME280;62776;50.518;6.732;2022-12-05T13:05:58;96577.03;;;3.89;100.00
74346;BME280;62776;50.518;6.732;2022-12-05T13:08:50;96583.81;;;3.86;100.00
74346;BME280;62776;50.518;6.732;2022-12-05T13:11:41;96584.66;;;3.83;100.00
74346;BME280;62776;50.518;6.732;2022-12-05T13:14:30;96587.94;;;3.75;100.00
74346;BME280;62776;50.518;6.732;2022-12-05T13:17:19;96592.97;;;3.69;100.00
74346;BME280;62776;50.518;6.732;2022-12-05T13:20:17;96589.34;;;3.56;100.00
74346;BME280;62776;50.518;6.732;2022-12-05T13:23:05;96594.53;;;3.59;100.00
74346;BME280;62776;50.518;6.732;2022-12-05T13:25:56;96590.91;;;3.49;100.00
74346;BME280;62776;50.518;6.732;2022-12-05T13:28:50;96601.81;;;3.36;100.00
74346;BME280;62776;50.518;6.732;2022-12-05T13:31:43;96604.31;;;3.32;100.00
74346;BME280;62776;50.518;6.732;2022-12-05T13:34:36;96600.88;;;2.86;100.00
74346;BME280;62776;50.518;6.732;2022-12-05T13:37:31;96605.94;;;3.27;100.00
74346;BME280;62776;50.518;6.732;2022-12-05T13:40:46;96605.94;;;3.27;100.00
74346;BME280;62776;50.518;6.732;2022-12-05T13:43:54;96602.72;;;3.38;100.00
74346;BME280;62776;50.518;6.732;2022-12-05T13:46:42;96602.75;;;3.40;100.00
74346;BME280;62776;50.518;6.732;2022-12-05T13:49:42;96615.47;;;3.32;100.00
74346;BME280;62776;50.518;6.732;2022-12-05T13:52:31;96602.75;;;3.41;100.00
74346;BME280;62776;50.518;6.732;2022-12-05T13:55:34;96600.94;;;3.36;100.00
74346;BME280;62776;50.518;6.732;2022-12-05T14:04:44;96605.97;;;3.28;100.00
74346;BME280;62776;50.518;6.732;2022-12-05T14:07:40;96602.69;;;3.37;100.00
74346;BME280;62776;50.518;6.732;2022-12-05T14:19:27;96610.16;;;3.25;100.00
74346;BME280;62776;50.518;6.732;2022-12-05T14:28:44;96616.16;;;3.25;100.00
74346;BME280;62776;50.518;6.732;2022-12-05T14:31:57;96624.94;;;3.35;100.00
74346;BME280;62776;50.518;6.732;2022-12-05T14:37:40;96609.47;;;3.32;100.00
74346;BME280;62776;50.518;6.732;2022-12-05T14:40:41;96623.00;;;3.25;100.00
74346;BME280;62776;50.518;6.732;2022-12-05T14:43:32;96627.31;;;3.27;100.00
74346;BME280;62776;50.518;6.732;2022-12-05T14:46:29;96616.91;;;3.18;100.00
74346;BME280;62776;50.518;6.732;2022-12-05T14:49:50;96616.72;;;3.09;100.00
74346;BME280;62776;50.518;6.732;2022-12-05T14:52:38;96629.69;;;3.17;100.00
74346;BME280;62776;50.518;6.732;2022-12-05T14:55:25;96627.94;;;3.14;100.00
74346;BME280;62776;50.518;6.732;2022-12-05T15:01:26;96636.25;;;3.01;100.00
74346;BME280;62776;50.518;6.732;2022-12-05T15:04:16;96630.31;;;3.05;100.00
74346;BME280;62776;50.518;6.732;2022-12-05T15:07:11;96633.63;;;2.99;100.00
74346;BME280;62776;50.518;6.732;2022-12-05T15:12:57;96643.09;;;3.01;100.00
74346;BME280;62776;50.518;6.732;2022-12-05T15:16:03;96646.44;;;2.96;100.00
74346;BME280;62776;50.518;6.732;2022-12-05T15:18:52;96635.44;;;3.04;100.00
74346;BME280;62776;50.518;6.732;2022-12-05T15:21:46;96632.94;;;3.07;100.00
74346;BME280;62776;50.518;6.732;2022-12-05T15:24:37;96631.13;;;3.03;100.00
74346;BME280;62776;50.518;6.732;2022-12-05T15:27:24;96633.88;;;3.10;100.00
74346;BME280;62776;50.518;6.732;2022-12-05T15:30:16;96639.69;;;3.02;100.00
74346;BME280;62776;50.518;6.732;2022-12-05T15:33:02;96631.25;;;3.07;100.00
74346;BME280;62776;50.518;6.732;2022-12-05T15:35:49;96643.16;;;3.04;100.00
74346;BME280;62776;50.518;6.732;2022-12-05T15:38:37;96639.63;;;2.98;100.00
74346;BME280;62776;50.518;6.732;2022-12-05T15:41:26;96639.47;;;2.91;100.00
74346;BME280;62776;50.518;6.732;2022-12-05T15:44:12;96645.50;;;2.93;100.00
74346;BME280;62776;50.518;6.732;2022-12-05T15:46:58;96643.81;;;2.93;100.00
74346;BME280;62776;50.518;6.732;2022-12-05T15:49:45;96648.06;;;2.93;100.00
74346;BME280;62776;50.518;6.732;2022-12-05T15:52:40;96647.88;;;2.84;100.00
74346;BME280;62776;50.518;6.732;2022-12-05T15:55:37;96647.00;;;2.83;100.00
74346;BME280;62776;50.518;6.732;2022-12-05T15:58:28;96650.47;;;2.85;100.00
74346;BME280;62776;50.518;6.732;2022-12-05T16:01:19;96659.00;;;2.83;100.00
74346;BME280;62776;50.518;6.732;2022-12-05T16:04:27;96661.22;;;2.69;100.00
74346;BME280;62776;50.518;6.732;2022-12-05T16:07:15;96662.38;;;2.82;100.00
74346;BME280;62776;50.518;6.732;2022-12-05T16:10:02;96664.06;;;2.81;100.00
74346;BME280;62776;50.518;6.732;2022-12-05T16:12:49;96670.00;;;2.77;100.00
74346;BME280;62776;50.518;6.732;2022-12-05T16:15:36;96670.06;;;2.82;100.00
74346;BME280;62776;50.518;6.732;2022-12-05T16:18:28;96668.25;;;2.78;100.00
74346;BME280;62776;50.518;6.732;2022-12-05T16:21:34;96677.41;;;2.65;100.00
74346;BME280;62776;50.518;6.732;2022-12-05T16:24:31;96675.94;;;2.76;100.00
74346;BME280;62776;50.518;6.732;2022-12-05T16:30:21;96675.84;;;2.72;100.00
74346;BME280;62776;50.518;6.732;2022-12-05T16:33:15;96680.19;;;2.74;100.00
74346;BME280;62776;50.518;6.732;2022-12-05T16:36:11;96687.81;;;2.71;100.00
74346;BME280;62776;50.518;6.732;2022-12-05T16:39:05;96689.50;;;2.71;100.00
74346;BME280;62776;50.518;6.732;2022-12-05T16:41:52;96687.97;;;2.79;100.00
74346;BME280;62776;50.518;6.732;2022-12-05T16:50:33;96699.88;;;2.75;100.00
74346;BME280;62776;50.518;6.732;2022-12-05T16:53:31;96701.59;;;2.76;100.00
74346;BME280;62776;50.518;6.732;2022-12-05T16:56:24;96697.28;;;2.75;100.00
74346;BME280;62776;50.518;6.732;2022-12-05T16:59:18;96691.22;;;2.70;100.00
74346;BME280;62776;50.518;6.732;2022-12-05T17:02:13;96694.72;;;2.74;100.00
74346;BME280;62776;50.518;6.732;2022-12-05T17:05:04;96696.47;;;2.76;100.00
74346;BME280;62776;50.518;6.732;2022-12-05T17:07:51;96694.84;;;2.80;100.00
74346;BME280;62776;50.518;6.732;2022-12-05T17:10:37;96694.88;;;2.81;100.00
74346;BME280;62776;50.518;6.732;2022-12-05T17:13:24;96697.41;;;2.80;100.00
74346;BME280;62776;50.518;6.732;2022-12-05T17:16:10;96701.59;;;2.76;100.00
74346;BME280;62776;50.518;6.732;2022-12-05T17:18:57;96697.28;;;2.75;100.00
74346;BME280;62776;50.518;6.732;2022-12-05T17:21:43;96702.44;;;2.75;100.00
74346;BME280;62776;50.518;6.732;2022-12-05T17:24:29;96707.50;;;2.72;100.00